Time;durP1;ratioP1;P1;durP2;ratioP2;P2;SDS_P1;SDS_P2;PMS_P1;PMS_P2;Temp;Humidity;BMP_temperature;BMP_pressure;BME280_temperature;BME280_humidity;BME280_pressure;Samples;Min_cycle;Max_cycle;Signal;HPM_P1;HPM_P2
2023/03/28 00:00:29;;;;;;;;;2.00;1.00;;;;;9.19;43.28;101980.66;5075827;27;45593;-73
2023/03/28 00:02:54;;;;;;;;;2.25;1.75;;;;;9.19;42.75;101983.28;5075210;28;45773;-74
2023/03/28 00:05:20;;;;;;;;;3.00;2.00;;;;;9.13;42.83;101989.63;5075207;27;45740;-76
2023/03/28 00:07:46;;;;;;;;;2.00;2.00;;;;;9.06;42.69;101989.97;5073143;28;47068;-75
2023/03/28 00:13:34;;;;;;;;;4.00;2.50;;;;;9.00;43.21;101998.91;5074666;28;45464;-75
2023/03/28 00:16:08;;;;;;;;;2.75;2.75;;;;;8.95;43.23;101992.19;5073999;28;45706;-74
2023/03/28 00:18:37;;;;;;;;;3.50;2.50;;;;;8.78;43.59;101982.41;5073248;28;48298;-76
2023/03/28 00:21:06;;;;;;;;;3.00;3.00;;;;;8.73;43.82;101980.00;5074597;27;47443;-77
2023/03/28 00:23:32;;;;;;;;;2.00;2.00;;;;;8.76;44.02;101986.84;5074436;27;45925;-73
2023/03/28 00:26:03;;;;;;;;;4.00;2.00;;;;;8.86;43.91;101996.00;5074560;28;45826;-76
2023/03/28 00:28:29;;;;;;;;;2.25;2.00;;;;;8.79;44.21;101984.97;5074374;27;45522;-75
2023/03/28 00:31:01;;;;;;;;;7.25;3.00;;;;;8.93;44.02;102004.44;5074276;27;46086;-75
2023/03/28 00:33:27;;;;;;;;;3.00;3.00;;;;;8.84;44.05;101984.78;5074406;27;45604;-73
2023/03/28 00:35:55;;;;;;;;;2.50;2.50;;;;;8.90;44.05;101994.97;5074676;27;45811;-74
2023/03/28 00:38:20;;;;;;;;;2.25;2.00;;;;;8.92;44.34;101987.91;5074098;27;47559;-75
2023/03/28 00:44:44;;;;;;;;;2.00;2.00;;;;;8.93;44.30;101983.53;5062619;28;45947;-74
2023/03/28 00:47:32;;;;;;;;;5.00;3.00;;;;;8.94;43.95;101993.09;5073917;27;45731;-78
2023/03/28 00:50:04;;;;;;;;;2.00;2.00;;;;;8.89;44.20;101988.06;5074349;28;45655;-75
2023/03/28 00:52:38;;;;;;;;;3.00;3.00;;;;;8.95;44.12;101992.19;5074029;27;46438;-72
2023/03/28 00:58:30;;;;;;;;;4.00;4.00;;;;;8.92;44.14;101987.06;5073846;28;45550;-75
2023/03/28 01:00:56;;;;;;;;;1.50;1.50;;;;;8.92;44.32;101990.53;5074061;27;45750;-75
2023/03/28 01:03:29;;;;;;;;;5.00;3.00;;;;;8.87;44.63;101975.94;5073911;28;46125;-75
2023/03/28 01:05:55;;;;;;;;;3.00;2.25;;;;;8.96;44.49;101984.25;5073842;27;45795;-76
2023/03/28 01:08:28;;;;;;;;;2.50;2.50;;;;;8.98;44.29;101990.28;5073720;27;45572;-74
2023/03/28 01:14:19;;;;;;;;;3.00;3.00;;;;;9.03;44.60;101992.69;5073897;28;46019;-74
2023/03/28 01:16:46;;;;;;;;;3.00;2.75;;;;;9.03;44.61;101985.69;5073450;27;45751;-74
2023/03/28 01:19:37;;;;;;;;;3.00;2.00;;;;;9.01;44.52;101984.09;5073913;27;45581;-75
2023/03/28 01:22:36;;;;;;;;;6.75;5.00;;;;;8.98;44.42;101979.81;5073673;27;47490;-78
2023/03/28 01:25:04;;;;;;;;;2.75;2.00;;;;;9.01;44.44;101982.31;5074030;28;46470;-74
2023/03/28 01:27:50;;;;;;;;;5.00;5.00;;;;;9.03;44.73;101974.38;5076215;28;45626;-74
2023/03/28 01:30:35;;;;;;;;;3.50;3.00;;;;;9.03;44.55;101979.63;5079132;28;45482;-72
2023/03/28 01:33:33;;;;;;;;;3.00;2.50;;;;;9.03;44.64;101980.47;5093320;27;48775;-73
2023/03/28 01:36:30;;;;;;;;;2.50;2.50;;;;;9.08;44.40;101972.44;5034321;28;46692;-73
2023/03/28 01:39:28;;;;;;;;;5.50;5.50;;;;;9.11;44.63;101956.63;5034592;28;45709;-75
2023/03/28 01:42:18;;;;;;;;;1.75;1.00;;;;;9.14;44.39;101959.09;4955428;28;45646;-72
2023/03/28 01:44:57;;;;;;;;;2.50;2.25;;;;;9.13;44.50;101952.16;4955310;28;45784;-75
2023/03/28 01:47:33;;;;;;;;;2.50;2.50;;;;;9.13;44.65;101939.09;4955241;28;46646;-73
2023/03/28 01:50:07;;;;;;;;;2.50;2.00;;;;;9.18;44.17;101951.03;4956710;28;45558;-74
2023/03/28 01:52:56;;;;;;;;;3.00;3.00;;;;;9.10;44.02;101934.00;4956245;28;45832;-74
2023/03/28 01:55:33;;;;;;;;;2.25;2.00;;;;;9.04;43.97;101922.06;4956421;28;45569;-73
2023/03/28 01:58:11;;;;;;;;;3.50;2.00;;;;;9.08;44.15;101926.22;4955524;28;46225;-75
2023/03/28 02:00:41;;;;;;;;;2.25;2.00;;;;;9.05;44.18;101915.91;4955151;28;45872;-75
2023/03/28 02:03:17;;;;;;;;;4.50;3.00;;;;;8.99;44.06;101899.63;4955685;28;45528;-76
2023/03/28 02:05:46;;;;;;;;;2.00;2.00;;;;;9.00;44.52;101902.19;4955156;28;46518;-73
2023/03/28 02:08:14;;;;;;;;;2.25;2.00;;;;;8.94;44.58;101894.63;4955162;28;46394;-74
2023/03/28 02:10:43;;;;;;;;;2.50;2.00;;;;;9.01;44.29;101903.91;4962443;28;45872;-75
2023/03/28 02:13:13;;;;;;;;;3.00;3.00;;;;;8.94;44.50;101904.22;5014552;28;45620;-73
2023/03/28 02:15:42;;;;;;;;;3.50;3.00;;;;;8.78;44.51;101889.22;5014083;28;45704;-74
2023/03/28 02:18:15;;;;;;;;;2.00;2.00;;;;;8.79;44.59;101897.91;5033096;28;46587;-72
2023/03/28 02:20:44;;;;;;;;;3.00;3.00;;;;;8.72;44.65;101905.16;5076090;27;45889;-74
2023/03/28 02:23:19;;;;;;;;;3.00;3.00;;;;;8.74;44.61;101919.00;5076810;27;45683;-75
2023/03/28 02:25:45;;;;;;;;;3.50;2.75;;;;;8.72;44.63;101919.97;5076229;27;46650;-74
2023/03/28 02:28:13;;;;;;;;;2.00;2.00;;;;;8.70;44.89;101911.34;5075888;27;47261;-73
2023/03/28 02:30:39;;;;;;;;;3.00;3.00;;;;;8.67;44.69;101912.34;5076777;27;45777;-75
2023/03/28 02:33:09;;;;;;;;;3.00;3.00;;;;;8.64;45.29;101907.22;5076813;28;45749;-74
2023/03/28 02:35:52;;;;;;;;;3.00;2.00;;;;;8.63;44.80;101908.16;5076484;27;45706;-76
2023/03/28 02:38:42;;;;;;;;;2.25;1.50;;;;;8.68;45.04;101895.75;5076248;27;45960;-75
2023/03/28 02:41:44;;;;;;;;;5.50;4.50;;;;;8.69;45.02;101900.03;5075469;27;45681;-76
2023/03/28 02:44:31;;;;;;;;;5.00;2.00;;;;;8.63;44.97;101882.03;5076094;28;45668;-74
2023/03/28 02:47:21;;;;;;;;;2.00;2.00;;;;;8.61;44.99;101883.84;5076076;28;45671;-74
2023/03/28 02:49:49;;;;;;;;;2.25;2.00;;;;;8.57;45.11;101881.44;5076496;28;46096;-75
2023/03/28 02:52:29;;;;;;;;;3.00;2.00;;;;;8.47;45.31;101878.38;5075871;27;45664;-73
2023/03/28 02:55:06;;;;;;;;;3.00;2.50;;;;;8.46;45.14;101874.06;5091772;27;45561;-74
2023/03/28 02:57:48;;;;;;;;;4.00;2.50;;;;;8.36;45.17;101872.75;5075443;27;46387;-74
2023/03/28 03:00:18;;;;;;;;;3.00;2.00;;;;;8.37;45.24;101864.81;5076205;27;46409;-72
2023/03/28 03:02:50;;;;;;;;;3.00;3.00;;;;;8.42;45.35;101880.31;5076183;27;45601;-73
2023/03/28 03:05:19;;;;;;;;;3.00;2.25;;;;;8.27;45.41;101850.44;5076178;27;45772;-75
2023/03/28 03:07:44;;;;;;;;;3.00;2.75;;;;;8.41;45.39;101862.97;5075480;27;47529;-73
2023/03/28 03:10:10;;;;;;;;;4.00;2.00;;;;;8.43;45.56;101861.97;5076229;28;45877;-75
2023/03/28 03:12:36;;;;;;;;;3.00;2.00;;;;;8.45;45.60;101859.28;5076518;27;45761;-74
2023/03/28 03:15:03;;;;;;;;;3.50;2.00;;;;;8.51;45.38;101863.41;5076045;27;45584;-74
2023/03/28 03:17:29;;;;;;;;;2.75;2.75;;;;;8.46;45.59;101840.09;5075558;27;46511;-75
2023/03/28 03:19:55;;;;;;;;;3.00;2.50;;;;;8.54;45.61;101851.06;5075982;27;46133;-74
2023/03/28 03:22:21;;;;;;;;;3.00;3.00;;;;;8.51;45.50;101839.91;5075850;28;45697;-72
2023/03/28 03:24:49;;;;;;;;;3.00;3.00;;;;;8.47;45.66;101836.59;5075912;27;45679;-74
2023/03/28 03:27:16;;;;;;;;;2.25;2.00;;;;;8.57;45.57;101835.28;5074976;27;46903;-74
2023/03/28 03:29:43;;;;;;;;;4.25;2.75;;;;;8.54;45.60;101827.56;5075727;27;46215;-76
2023/03/28 03:32:08;;;;;;;;;3.00;2.50;;;;;8.58;45.61;101823.06;5075327;27;45937;-73
2023/03/28 03:34:35;;;;;;;;;3.00;2.00;;;;;8.58;45.70;101821.31;5075277;27;45832;-74
2023/03/28 03:37:03;;;;;;;;;3.00;2.00;;;;;8.55;45.80;101815.34;5075238;28;46739;-74
2023/03/28 03:39:28;;;;;;;;;4.50;2.75;;;;;8.56;45.91;101822.28;5075623;27;46510;-76
2023/03/28 03:41:55;;;;;;;;;2.25;2.00;;;;;8.52;46.24;101813.72;5075520;28;45566;-75
2023/03/28 03:44:20;;;;;;;;;2.00;2.00;;;;;8.51;45.97;101814.66;5092187;27;45668;-75
2023/03/28 03:46:46;;;;;;;;;2.25;2.00;;;;;8.40;46.13;101788.13;5076137;28;46109;-74
2023/03/28 03:49:11;;;;;;;;;5.00;2.25;;;;;8.53;45.97;101807.56;5073779;28;47306;-74
2023/03/28 03:51:38;;;;;;;;;2.50;2.50;;;;;8.57;45.87;101803.09;5075170;27;46061;-74
2023/03/28 03:54:03;;;;;;;;;3.00;1.00;;;;;8.57;45.92;101805.69;5075048;28;45795;-72
2023/03/28 03:56:29;;;;;;;;;2.00;2.00;;;;;8.59;46.12;101809.91;5074836;28;46615;-77
2023/03/28 03:58:55;;;;;;;;;3.00;2.00;;;;;8.64;46.00;101814.94;5074626;27;46517;-74
2023/03/28 04:01:24;;;;;;;;;2.00;2.00;;;;;8.67;45.97;101809.59;5074870;27;45599;-73
2023/03/28 04:03:50;;;;;;;;;2.75;2.00;;;;;8.69;45.89;101805.97;5075056;28;45698;-76
2023/03/28 04:06:16;;;;;;;;;3.00;2.00;;;;;8.71;46.11;101798.09;5090458;27;47485;-74
2023/03/28 04:08:41;;;;;;;;;3.50;2.25;;;;;8.70;45.91;101792.00;5074244;28;45986;-73
2023/03/28 04:11:09;;;;;;;;;2.50;2.50;;;;;8.65;46.06;101800.97;5074658;27;45601;-72
2023/03/28 04:16:56;;;;;;;;;4.00;2.25;;;;;8.43;46.05;101785.38;5074257;28;46058;-73
2023/03/28 04:19:23;;;;;;;;;3.00;3.00;;;;;8.51;46.44;101800.72;5074795;28;45698;-76
2023/03/28 04:21:51;;;;;;;;;3.00;2.50;;;;;8.53;46.15;101804.13;5074745;27;45553;-73
2023/03/28 04:24:19;;;;;;;;;4.50;3.00;;;;;8.43;46.06;101791.47;5074345;27;45677;-73
2023/03/28 04:26:48;;;;;;;;;3.00;2.00;;;;;8.59;46.08;101806.47;5074157;27;46540;-74
2023/03/28 04:29:16;;;;;;;;;3.00;1.50;;;;;8.54;46.01;101806.66;5073978;28;46973;-75
2023/03/28 04:31:48;;;;;;;;;2.00;2.00;;;;;8.49;46.22;101805.16;5074625;27;45712;-73
2023/03/28 04:34:15;;;;;;;;;3.00;3.00;;;;;8.43;46.35;101806.28;5074431;27;45685;-73
2023/03/28 04:36:40;;;;;;;;;3.00;2.00;;;;;8.40;46.39;101802.03;5073990;27;46559;-75
2023/03/28 04:39:07;;;;;;;;;3.50;3.50;;;;;8.42;46.75;101815.03;5074326;28;45748;-75
2023/03/28 04:41:33;;;;;;;;;2.25;2.25;;;;;8.36;46.61;101803.09;5089955;27;45852;-73
2023/03/28 04:47:59;;;;;;;;;3.25;3.25;;;;;8.31;46.92;101809.44;5069272;28;46243;-74
2023/03/28 04:50:24;;;;;;;;;5.00;3.00;;;;;8.18;47.21;101789.94;5074360;28;46581;-74
2023/03/28 04:52:50;;;;;;;;;2.00;2.00;;;;;8.29;47.35;101804.22;5074404;28;45690;-74
2023/03/28 04:55:15;;;;;;;;;6.00;3.50;;;;;8.29;47.26;101801.63;5074314;27;45638;-74
2023/03/28 04:57:40;;;;;;;;;5.00;4.00;;;;;8.21;47.43;101795.00;5073611;27;47429;-74
2023/03/28 05:00:11;;;;;;;;;6.25;5.00;;;;;8.26;47.47;101801.72;5073926;27;46260;-75
2023/03/28 05:02:37;;;;;;;;;5.25;3.50;;;;;8.23;47.53;101799.25;5073288;27;45872;-76
2023/03/28 05:05:02;;;;;;;;;5.00;5.00;;;;;8.18;47.71;101790.78;5074225;28;45522;-77
2023/03/28 05:07:28;;;;;;;;;3.25;2.50;;;;;8.14;47.98;101799.66;5073606;27;45664;-76
2023/03/28 05:09:53;;;;;;;;;4.75;4.00;;;;;8.15;48.17;101813.56;5073453;28;45657;-77
2023/03/28 05:12:18;;;;;;;;;3.75;3.25;;;;;8.05;47.98;101805.25;5074197;27;45705;-73
2023/03/28 05:14:44;;;;;;;;;6.00;5.00;;;;;8.11;48.17;101811.97;5074019;28;45704;-75
2023/03/28 05:17:09;;;;;;;;;2.50;2.50;;;;;8.13;48.29;101815.38;5073688;28;46516;-75
2023/03/28 05:19:34;;;;;;;;;7.25;5.25;;;;;8.04;48.27;101798.34;5073840;28;47121;-74
2023/03/28 05:22:00;;;;;;;;;5.75;5.00;;;;;8.09;48.46;101825.09;5089412;27;45524;-72
2023/03/28 05:24:25;;;;;;;;;5.50;4.50;;;;;8.04;48.42;101814.00;5073758;27;45763;-74
2023/03/28 05:26:51;;;;;;;;;6.00;6.00;;;;;8.12;48.42;101818.91;5073492;27;46096;-74
2023/03/28 05:32:38;;;;;;;;;4.75;4.50;;;;;8.01;48.61;101807.13;5073682;28;45759;-74
2023/03/28 05:35:10;;;;;;;;;5.50;5.25;;;;;8.06;48.83;101813.91;5074995;28;45519;-73
2023/03/28 05:37:35;;;;;;;;;5.50;5.50;;;;;8.06;48.90;101814.78;5074408;27;46761;-75
2023/03/28 05:40:05;;;;;;;;;4.50;3.00;;;;;8.00;48.70;101805.44;5074248;27;46046;-75
2023/03/28 05:42:31;;;;;;;;;6.00;6.00;;;;;8.03;49.05;101827.97;5073636;27;45497;-75
2023/03/28 05:44:56;;;;;;;;;7.25;5.00;;;;;7.99;49.01;101815.94;5089449;27;45680;-76
2023/03/28 05:47:21;;;;;;;;;6.00;5.25;;;;;8.01;49.14;101821.94;5072838;28;45678;-74
2023/03/28 05:49:47;;;;;;;;;5.25;5.25;;;;;7.98;49.09;101806.44;5073202;27;46165;-77
2023/03/28 05:52:12;;;;;;;;;5.50;5.00;;;;;7.95;49.18;101811.75;5072993;27;46018;-70
2023/03/28 05:54:37;;;;;;;;;5.25;5.00;;;;;7.98;49.25;101812.50;5072595;27;45701;-72
2023/03/28 05:57:03;;;;;;;;;5.00;5.00;;;;;7.99;49.36;101810.72;5072625;27;47374;-70
2023/03/28 06:02:50;;;;;;;;;6.00;5.50;;;;;8.09;49.47;101819.03;5073039;28;45577;-73
2023/03/28 06:05:16;;;;;;;;;6.75;6.75;;;;;8.13;49.51;101816.22;5073232;27;45453;-72
2023/03/28 06:07:42;;;;;;;;;7.50;7.00;;;;;8.18;49.45;101814.28;5072925;27;45812;-73
2023/03/28 06:10:09;;;;;;;;;6.25;5.75;;;;;8.15;49.73;101811.78;5073338;27;45911;-72
2023/03/28 06:12:34;;;;;;;;;6.75;6.00;;;;;8.20;49.39;101819.44;5073286;27;45672;-72
2023/03/28 06:18:21;;;;;;;;;7.50;6.50;;;;;8.29;49.35;101825.13;5076177;28;45717;-74
2023/03/28 06:20:47;;;;;;;;;9.00;7.25;;;;;8.38;49.19;101831.72;5076708;27;46271;-71
2023/03/28 06:23:12;;;;;;;;;6.00;5.75;;;;;8.44;49.20;101831.47;5076190;27;45514;-72
2023/03/28 06:25:37;;;;;;;;;9.50;6.50;;;;;8.44;48.94;101828.88;5076471;28;45552;-73
2023/03/28 06:28:03;;;;;;;;;9.00;7.00;;;;;8.43;49.26;101828.00;5076013;27;46445;-71
2023/03/28 06:30:28;;;;;;;;;6.75;6.00;;;;;8.49;49.39;101828.66;5076142;27;47189;-73
2023/03/28 06:32:54;;;;;;;;;13.00;9.75;;;;;8.52;49.41;101833.78;5076163;27;46084;-72
2023/03/28 06:35:19;;;;;;;;;4.50;3.50;;;;;8.51;48.95;101834.69;5076240;27;45756;-73
2023/03/28 06:37:45;;;;;;;;;12.00;9.75;;;;;8.50;49.32;101833.84;5076148;27;47265;-72
2023/03/28 06:40:10;;;;;;;;;9.00;6.75;;;;;8.49;49.28;101819.06;5076452;28;47294;-78
2023/03/28 06:42:36;;;;;;;;;16.75;14.75;;;;;8.61;49.27;101835.97;5076407;28;45719;-74
2023/03/28 06:48:29;;;;;;;;;10.00;9.00;;;;;8.66;49.23;101847.06;5065306;28;46113;-73
2023/03/28 06:50:54;;;;;;;;;9.25;7.50;;;;;8.71;49.09;101840.75;5075952;27;46180;-73
2023/03/28 06:53:20;;;;;;;;;13.50;13.00;;;;;8.68;49.08;101830.44;5076129;27;45615;-70
2023/03/28 06:55:47;;;;;;;;;14.25;14.25;;;;;8.71;49.00;101837.28;5075894;27;45757;-71
2023/03/28 06:58:13;;;;;;;;;10.50;9.25;;;;;8.68;49.20;101824.38;5091655;27;47427;-71
2023/03/28 07:04:00;;;;;;;;;7.00;6.00;;;;;8.65;49.16;101824.47;5075652;28;45617;-71
2023/03/28 07:06:26;;;;;;;;;9.25;7.00;;;;;8.69;49.03;101820.84;5075742;27;45624;-73
2023/03/28 07:08:52;;;;;;;;;8.25;6.75;;;;;8.68;49.10;101824.38;5075346;28;47278;-72
2023/03/28 07:11:18;;;;;;;;;8.75;8.50;;;;;8.67;49.19;101809.59;5075777;27;47071;-71
2023/03/28 07:13:43;;;;;;;;;9.75;8.00;;;;;8.71;49.31;101798.09;5074755;27;45472;-71
2023/03/28 07:16:14;;;;;;;;;9.25;9.00;;;;;8.72;48.93;101789.34;5074625;28;45933;-71
2023/03/28 07:18:40;;;;;;;;;9.00;7.50;;;;;8.77;49.15;101776.91;5075805;27;46570;-71
2023/03/28 07:21:11;;;;;;;;;10.00;9.00;;;;;8.81;49.23;101789.78;5075480;27;46151;-70
2023/03/28 07:23:40;;;;;;;;;12.75;10.00;;;;;8.79;49.13;101780.31;5075166;27;45832;-71
2023/03/28 07:26:07;;;;;;;;;8.75;8.00;;;;;8.79;49.08;101778.56;5075075;27;45827;-71
2023/03/28 07:28:33;;;;;;;;;7.00;7.00;;;;;8.72;49.20;101773.66;5075813;27;46544;-72
2023/03/28 07:34:20;;;;;;;;;11.50;8.00;;;;;8.70;49.31;101784.19;5076372;28;45777;-71
2023/03/28 07:36:45;;;;;;;;;12.50;9.00;;;;;8.84;48.97;101810.56;5076235;27;45702;-70
2023/03/28 07:39:11;;;;;;;;;8.50;8.50;;;;;8.91;49.02;101823.34;5074762;28;47371;-71
2023/03/28 07:41:36;;;;;;;;;11.00;8.25;;;;;8.88;48.99;101798.19;5075420;28;45555;-70
2023/03/28 07:44:01;;;;;;;;;10.00;9.25;;;;;9.04;49.40;101812.25;5074796;28;45545;-71
2023/03/28 07:46:27;;;;;;;;;11.00;10.00;;;;;9.05;49.15;101819.19;5074412;28;45773;-70
2023/03/28 07:48:53;;;;;;;;;12.50;10.25;;;;;9.12;48.87;101819.78;5074709;28;45806;-71
2023/03/28 07:51:18;;;;;;;;;10.00;9.75;;;;;9.16;48.72;101818.72;5074619;27;46722;-71
2023/03/28 07:53:44;;;;;;;;;9.50;9.00;;;;;9.13;48.87;101806.59;5074780;28;45617;-70
2023/03/28 07:56:10;;;;;;;;;13.00;11.50;;;;;9.09;49.00;101799.84;5090794;27;46013;-70
2023/03/28 07:58:40;;;;;;;;;10.25;9.75;;;;;9.02;48.70;101790.56;5075135;27;46578;-72
2023/03/28 08:04:27;;;;;;;;;10.25;10.00;;;;;9.32;48.53;101830.16;5074967;28;45571;-71
2023/03/28 08:06:52;;;;;;;;;10.75;10.50;;;;;9.25;48.40;101799.97;5074865;27;45536;-70
2023/03/28 08:09:18;;;;;;;;;15.00;11.00;;;;;9.36;48.15;101812.53;5074621;27;46166;-70
2023/03/28 08:11:45;;;;;;;;;10.75;10.00;;;;;9.35;48.28;101814.31;5074106;27;46777;-71
2023/03/28 08:14:13;;;;;;;;;14.75;12.00;;;;;9.42;47.98;101809.66;5074394;27;45519;-72
2023/03/28 08:16:39;;;;;;;;;8.25;7.00;;;;;9.45;48.29;101822.56;5074542;27;45483;-72
2023/03/28 08:19:04;;;;;;;;;10.00;9.50;;;;;9.41;48.16;101805.34;5090567;27;46295;-72
2023/03/28 08:21:30;;;;;;;;;10.50;10.00;;;;;9.53;48.09;101812.59;5074340;28;46127;-71
2023/03/28 08:23:57;;;;;;;;;8.25;7.75;;;;;9.54;47.92;101803.84;5074163;27;45698;-71
2023/03/28 08:26:22;;;;;;;;;11.50;10.50;;;;;9.60;47.77;101814.03;5089921;27;46016;-71
2023/03/28 08:28:48;;;;;;;;;11.00;8.25;;;;;9.67;47.64;101815.41;5074806;27;45588;-71
2023/03/28 08:34:36;;;;;;;;;9.00;8.25;;;;;9.82;47.64;101801.59;5074235;28;45863;-70
2023/03/28 08:37:01;;;;;;;;;8.25;6.50;;;;;9.89;47.45;101809.97;5073447;27;45590;-71
2023/03/28 08:39:26;;;;;;;;;10.75;10.00;;;;;9.92;47.29;101810.69;5089964;27;47238;-71
2023/03/28 08:42:15;;;;;;;;;8.00;8.00;;;;;9.92;47.13;101815.94;5074102;28;46717;-71
2023/03/28 08:45:09;;;;;;;;;10.75;9.25;;;;;10.03;46.84;101823.25;5074364;27;45515;-70
2023/03/28 08:47:49;;;;;;;;;11.00;8.25;;;;;10.04;46.74;101811.88;5074357;28;45601;-70
2023/03/28 08:50:23;;;;;;;;;11.00;11.00;;;;;10.07;46.14;101809.09;5073946;27;47247;-73
2023/03/28 08:52:49;;;;;;;;;10.00;10.00;;;;;10.16;46.10;101808.66;5073604;27;46438;-75
2023/03/28 08:55:17;;;;;;;;;14.25;10.00;;;;;10.22;45.76;101797.88;5074242;27;45616;-74
2023/03/28 08:57:44;;;;;;;;;11.00;9.25;;;;;10.24;45.80;101798.66;5074347;28;45601;-75
2023/03/28 09:00:19;;;;;;;;;9.75;7.25;;;;;10.34;45.48;101801.66;5073957;27;45604;-73
2023/03/28 09:02:45;;;;;;;;;6.50;6.25;;;;;10.40;45.37;101798.72;5073778;27;47237;-72
2023/03/28 09:05:21;;;;;;;;;6.25;6.25;;;;;10.42;45.16;101789.84;5073163;28;45667;-73
2023/03/28 09:08:05;;;;;;;;;6.50;4.00;;;;;10.44;45.18;101790.63;5074296;28;45808;-75
2023/03/28 09:10:47;;;;;;;;;5.75;5.00;;;;;10.41;44.99;101774.22;5074020;28;46498;-75
2023/03/28 09:13:31;;;;;;;;;5.00;4.50;;;;;10.51;44.81;101775.44;5074042;27;46019;-73
2023/03/28 09:16:05;;;;;;;;;3.25;3.00;;;;;10.55;44.79;101784.81;5073724;28;45835;-74
2023/03/28 09:18:42;;;;;;;;;4.50;4.00;;;;;10.59;44.55;101772.38;5090215;27;45874;-75
2023/03/28 09:21:21;;;;;;;;;3.00;3.00;;;;;10.65;44.03;101783.41;5089789;27;46407;-74
2023/03/28 09:24:05;;;;;;;;;2.50;2.25;;;;;10.69;43.89;101778.88;5088979;27;46097;-75
2023/03/28 09:26:38;;;;;;;;;4.00;3.00;;;;;10.64;43.76;101779.09;5073402;27;45931;-73
2023/03/28 09:29:17;;;;;;;;;4.50;4.25;;;;;10.70;43.63;101777.91;5073973;27;45940;-74
2023/03/28 09:31:48;;;;;;;;;2.25;2.25;;;;;10.75;43.55;101779.38;5073507;27;46539;-74
2023/03/28 09:34:26;;;;;;;;;4.25;3.00;;;;;10.78;43.15;101775.75;5073533;27;47467;-74
2023/03/28 09:36:55;;;;;;;;;2.25;1.25;;;;;10.77;43.45;101759.19;5073519;27;45932;-73
2023/03/28 09:39:48;;;;;;;;;2.00;2.00;;;;;10.92;43.20;101771.47;5074049;27;45592;-72
2023/03/28 09:42:16;;;;;;;;;3.00;3.00;;;;;11.00;43.36;101759.72;5073616;28;46417;-74
2023/03/28 09:44:56;;;;;;;;;3.00;3.00;;;;;11.01;42.92;101746.53;5073633;28;46181;-73
2023/03/28 09:47:21;;;;;;;;;3.00;2.25;;;;;11.10;42.94;101753.03;5073376;27;45841;-74
2023/03/28 09:49:47;;;;;;;;;2.00;2.00;;;;;11.12;42.70;101741.50;5076173;27;45897;-75
2023/03/28 09:52:20;;;;;;;;;5.50;1.75;;;;;11.19;42.66;101731.53;5092733;27;47422;-73
2023/03/28 09:54:47;;;;;;;;;5.50;3.00;;;;;11.26;42.43;101739.00;5077320;27;46110;-74
2023/03/28 09:57:13;;;;;;;;;3.00;3.00;;;;;11.27;42.13;101730.19;5076807;28;45792;-73
2023/03/28 09:59:38;;;;;;;;;4.50;3.50;;;;;11.33;42.10;101735.09;5092763;27;45567;-75
2023/03/28 10:02:04;;;;;;;;;3.00;3.00;;;;;11.36;42.16;101726.19;5076472;27;46417;-73
2023/03/28 10:04:37;;;;;;;;;3.00;2.00;;;;;11.36;42.25;101728.81;5075428;28;46565;-72
2023/03/28 10:07:08;;;;;;;;;4.00;3.75;;;;;11.49;41.89;101732.47;5076741;27;45470;-75
2023/03/28 10:09:33;;;;;;;;;4.00;3.50;;;;;11.54;41.85;101719.06;5076802;28;45612;-73
2023/03/28 10:12:08;;;;;;;;;1.25;1.00;;;;;11.56;41.28;101720.66;5076413;28;46234;-73
2023/03/28 10:14:36;;;;;;;;;2.00;2.00;;;;;11.55;41.09;101707.66;5092063;27;48348;-76
2023/03/28 10:17:11;;;;;;;;;2.75;2.00;;;;;11.66;41.05;101732.31;5075994;27;45860;-73
2023/03/28 10:19:40;;;;;;;;;2.75;2.00;;;;;11.59;40.72;101698.66;5076541;27;45692;-74
2023/03/28 10:22:11;;;;;;;;;5.00;3.75;;;;;11.74;40.58;101714.38;5092094;27;46243;-73
2023/03/28 10:24:38;;;;;;;;;2.00;2.00;;;;;11.80;40.72;101704.47;5076563;27;45558;-75
2023/03/28 10:27:22;;;;;;;;;2.00;1.50;;;;;11.84;40.93;101703.34;5076492;27;45874;-73
2023/03/28 10:29:51;;;;;;;;;2.00;1.50;;;;;11.92;40.71;101712.47;5076404;27;45833;-75
2023/03/28 10:32:25;;;;;;;;;2.50;2.50;;;;;11.95;40.59;101700.94;5076511;28;46389;-72
2023/03/28 10:35:02;;;;;;;;;2.50;1.75;;;;;11.99;40.41;101711.16;5075977;28;46199;-72
2023/03/28 10:37:31;;;;;;;;;3.75;3.00;;;;;12.00;40.36;101704.97;5076241;27;45625;-74
2023/03/28 10:40:17;;;;;;;;;3.00;2.00;;;;;11.99;40.70;101695.41;5076352;27;45652;-75
2023/03/28 10:42:44;;;;;;;;;3.00;2.00;;;;;12.07;40.75;101697.56;5076940;27;45561;-74
2023/03/28 10:45:29;;;;;;;;;3.00;2.50;;;;;12.12;40.50;101695.53;5074648;28;46451;-75
2023/03/28 10:47:58;;;;;;;;;2.25;2.00;;;;;12.16;40.16;101707.53;5074553;27;45626;-71
2023/03/28 10:50:49;;;;;;;;;4.00;2.00;;;;;12.14;39.81;101691.88;5076008;27;45877;-71
2023/03/28 10:53:36;;;;;;;;;1.50;1.00;;;;;12.14;39.94;101689.25;5091305;27;48556;-71
2023/03/28 10:56:13;;;;;;;;;4.00;3.00;;;;;12.15;39.88;101680.41;5075547;28;46211;-73
2023/03/28 10:59:17;;;;;;;;;1.50;1.50;;;;;12.16;40.05;101673.38;5076242;28;45695;-71
2023/03/28 11:05:24;;;;;;;;;2.00;2.00;;;;;12.26;40.18;101663.13;5075641;28;45980;-72
2023/03/28 11:08:08;;;;;;;;;3.00;3.00;;;;;12.30;40.11;101662.88;5075460;27;46446;-71
2023/03/28 11:11:07;;;;;;;;;2.25;2.25;;;;;12.29;40.43;101655.94;5075407;28;45605;-72
2023/03/28 11:13:57;;;;;;;;;4.00;3.00;;;;;12.36;40.14;101651.97;5075774;28;45725;-71
2023/03/28 11:16:36;;;;;;;;;2.75;2.75;;;;;12.41;40.18;101646.47;5075165;27;46379;-72
2023/03/28 11:19:31;;;;;;;;;4.50;2.00;;;;;12.48;40.31;101645.97;5075340;28;46357;-72
2023/03/28 11:22:12;;;;;;;;;3.00;2.00;;;;;12.54;39.61;101650.00;5073569;28;45680;-72
2023/03/28 11:24:46;;;;;;;;;1.00;1.00;;;;;12.54;39.65;101632.44;5075656;28;45613;-71
2023/03/28 11:27:30;;;;;;;;;1.75;1.75;;;;;12.58;39.68;101619.94;5075218;28;47353;-71
2023/03/28 11:30:16;;;;;;;;;2.00;2.00;;;;;12.61;39.66;101639.00;5074787;27;46263;-71
2023/03/28 11:32:52;;;;;;;;;2.50;2.50;;;;;12.71;39.67;101646.31;5074927;27;45820;-72
2023/03/28 11:35:30;;;;;;;;;3.00;3.00;;;;;12.76;39.60;101639.81;5075502;28;45518;-72
2023/03/28 11:38:13;;;;;;;;;2.50;2.50;;;;;12.84;39.55;101634.06;5074880;27;47650;-73
2023/03/28 11:40:51;;;;;;;;;3.00;3.00;;;;;12.85;39.30;101630.47;5074844;27;46310;-72
2023/03/28 11:43:36;;;;;;;;;2.75;2.25;;;;;12.83;39.64;101627.13;5090822;27;45617;-71
2023/03/28 11:46:31;;;;;;;;;2.25;2.25;;;;;12.79;39.16;101620.38;5075133;27;45666;-72
2023/03/28 11:49:20;;;;;;;;;2.00;2.00;;;;;12.75;39.45;101611.81;5026549;28;45772;-73
2023/03/28 11:52:04;;;;;;;;;3.50;2.75;;;;;12.77;39.69;101604.69;4953267;28;46263;-72
2023/03/28 11:54:45;;;;;;;;;2.00;2.00;;;;;12.76;39.40;101604.78;4953668;28;45772;-72
2023/03/28 11:57:29;;;;;;;;;3.25;2.00;;;;;12.82;39.76;101602.59;4953728;28;45578;-72
2023/03/28 12:00:15;;;;;;;;;3.75;3.00;;;;;12.85;39.75;101607.66;4937306;28;47622;-71
2023/03/28 12:06:30;;;;;;;;;3.00;3.00;;;;;13.02;39.45;101569.75;4952964;28;45562;-71
2023/03/28 12:09:11;;;;;;;;;3.00;2.00;;;;;13.10;39.66;101564.81;4953623;28;45760;-71
2023/03/28 12:11:46;;;;;;;;;2.50;2.50;;;;;13.24;39.64;101566.56;4953187;28;47342;-72
2023/03/28 12:14:46;;;;;;;;;3.25;3.00;;;;;13.35;39.51;101579.84;4937269;28;46213;-73
2023/03/28 12:17:29;;;;;;;;;3.00;2.25;;;;;13.42;39.18;101584.59;4952780;28;45591;-71
2023/03/28 12:19:55;;;;;;;;;4.00;3.00;;;;;13.49;38.98;101571.03;4953228;28;45671;-72
2023/03/28 12:22:31;;;;;;;;;2.00;2.00;;;;;13.57;38.85;101561.66;4953530;28;46542;-71
2023/03/28 12:25:06;;;;;;;;;3.00;2.00;;;;;13.64;38.85;101562.94;4960055;28;46386;-72
2023/03/28 12:27:49;;;;;;;;;3.75;3.00;;;;;13.72;39.16;101562.38;5012328;28;45555;-70
2023/03/28 12:30:28;;;;;;;;;1.25;1.25;;;;;13.82;39.23;101558.16;5074778;27;45935;-71
2023/03/28 12:33:19;;;;;;;;;3.25;3.00;;;;;13.92;38.79;101543.44;5074434;28;46482;-72
2023/03/28 12:35:49;;;;;;;;;2.50;1.50;;;;;13.97;39.23;101548.38;5074247;27;46362;-71
2023/03/28 12:38:36;;;;;;;;;4.25;3.50;;;;;13.99;39.07;101557.84;5074531;27;45836;-71
2023/03/28 12:41:06;;;;;;;;;4.00;3.00;;;;;14.01;38.38;101531.38;5074720;28;45551;-71
2023/03/28 12:43:43;;;;;;;;;2.75;2.75;;;;;14.04;38.85;101529.38;5074543;27;45475;-70
2023/03/28 12:46:12;;;;;;;;;4.00;4.00;;;;;14.06;38.56;101516.09;5074297;28;45793;-72